Time;durP1;ratioP1;P1;durP2;ratioP2;P2;SDS_P1;SDS_P2;PMS_P1;PMS_P2;Temp;Humidity;BMP_temperature;BMP_pressure;BME280_temperature;BME280_humidity;BME280_pressure;Samples;Min_cycle;Max_cycle;Signal;HPM_P1;HPM_P2
2021/06/14 00:01:03;;;;;;;0.00;0.00;;;23.30;52.20;;;;;;5054734;28;20103;-75
2021/06/14 00:03:30;;;;;;;0.00;0.00;;;23.30;52.40;;;;;;5054671;28;20158;-75
2021/06/14 00:05:57;;;;;;;0.10;0.10;;;23.30;52.20;;;;;;5056398;28;20025;-75
2021/06/14 00:08:25;;;;;;;0.00;0.00;;;23.30;52.10;;;;;;5043608;28;20031;-75
2021/06/14 00:10:53;;;;;;;0.00;0.00;;;23.30;52.20;;;;;;5040053;28;20129;-75
2021/06/14 00:13:20;;;;;;;0.00;0.00;;;23.30;52.20;;;;;;5055123;28;20155;-75
2021/06/14 00:15:47;;;;;;;0.00;0.00;;;23.20;52.30;;;;;;5054594;28;20037;-75
2021/06/14 00:18:14;;;;;;;0.00;0.00;;;23.20;52.40;;;;;;5054627;28;20017;-75
2021/06/14 00:20:41;;;;;;;0.00;0.00;;;23.10;52.40;;;;;;5055845;28;20056;-75
2021/06/14 00:23:09;;;;;;;0.00;0.00;;;23.10;52.50;;;;;;5075565;28;20027;-75
2021/06/14 00:25:35;;;;;;;0.00;0.00;;;23.10;52.40;;;;;;5075813;28;20083;-76
2021/06/14 00:28:02;;;;;;;0.00;0.00;;;23.00;52.20;;;;;;5075792;28;20104;-75
2021/06/14 00:30:39;;;;;;;0.03;0.00;;;23.00;52.40;;;;;;5057450;28;20039;-75
2021/06/14 00:33:05;;;;;;;0.10;0.10;;;22.90;52.50;;;;;;5054574;28;20392;-75
2021/06/14 00:35:31;;;;;;;0.00;0.00;;;23.00;52.30;;;;;;5037097;28;20106;-75
2021/06/14 00:37:56;;;;;;;0.00;0.00;;;23.00;52.30;;;;;;5055710;28;20104;-75
2021/06/14 00:40:23;;;;;;;0.00;0.00;;;23.00;52.30;;;;;;5055676;28;20040;-76
2021/06/14 00:42:49;;;;;;;0.00;0.00;;;22.90;52.40;;;;;;5055591;28;20021;-75
2021/06/14 00:45:18;;;;;;;0.00;0.00;;;22.90;52.20;;;;;;5056118;28;20136;-75
2021/06/14 00:47:45;;;;;;;0.00;0.00;;;22.90;52.20;;;;;;5037525;28;20029;-75
2021/06/14 00:50:12;;;;;;;0.00;0.00;;;22.90;52.40;;;;;;5055352;28;20060;-75
2021/06/14 00:52:39;;;;;;;0.10;0.10;;;22.90;52.40;;;;;;5056258;28;20120;-75
2021/06/14 00:55:07;;;;;;;0.00;0.00;;;22.80;52.60;;;;;;5055336;28;20025;-75
2021/06/14 00:57:34;;;;;;;0.10;0.10;;;22.80;52.60;;;;;;5074941;28;20012;-75
2021/06/14 01:00:00;;;;;;;0.00;0.00;;;22.70;52.70;;;;;;5056031;28;20029;-75
2021/06/14 01:02:27;;;;;;;0.00;0.00;;;22.70;52.90;;;;;;5055339;28;20396;-75
2021/06/14 01:04:53;;;;;;;0.00;0.00;;;22.70;53.20;;;;;;5053509;28;20047;-75
2021/06/14 01:07:19;;;;;;;0.00;0.00;;;22.60;53.30;;;;;;5037304;28;20024;-75
2021/06/14 01:09:44;;;;;;;0.00;0.00;;;22.60;53.80;;;;;;5037269;28;20025;-75
2021/06/14 01:12:12;;;;;;;0.00;0.00;;;22.50;54.00;;;;;;5055073;28;20056;-76
2021/06/14 01:15:05;;;;;;;0.00;0.00;;;22.50;53.70;;;;;;5055482;28;20036;-75
2021/06/14 01:17:32;;;;;;;0.00;0.00;;;22.40;54.00;;;;;;5055690;28;20035;-75
2021/06/14 01:20:09;;;;;;;0.00;0.00;;;22.40;54.10;;;;;;5053792;28;20036;-75
2021/06/14 01:23:13;;;;;;;0.00;0.00;;;22.30;54.10;;;;;;5055194;28;20044;-75
2021/06/14 01:26:21;;;;;;;0.00;0.00;;;22.30;54.40;;;;;;5050408;28;20028;-75
2021/06/14 01:28:59;;;;;;;0.00;0.00;;;22.30;54.40;;;;;;5030636;28;20044;-75
2021/06/14 01:31:27;;;;;;;0.00;0.00;;;22.30;54.40;;;;;;5053861;28;20032;-75
2021/06/14 01:33:54;;;;;;;0.00;0.00;;;22.20;54.40;;;;;;5054831;28;20140;-75
2021/06/14 01:36:28;;;;;;;0.00;0.00;;;22.20;54.90;;;;;;5055004;28;20036;-75
2021/06/14 01:38:56;;;;;;;0.00;0.00;;;22.00;55.70;;;;;;5053514;28;20029;-75
2021/06/14 01:41:25;;;;;;;0.00;0.00;;;22.00;55.50;;;;;;5053315;28;20021;-75
2021/06/14 01:43:52;;;;;;;0.00;0.00;;;22.00;55.70;;;;;;5054931;28;20552;-76
2021/06/14 01:46:24;;;;;;;0.00;0.00;;;21.90;55.80;;;;;;5055549;28;20021;-75
2021/06/14 01:48:51;;;;;;;0.00;0.00;;;21.80;56.10;;;;;;5059197;28;20032;-76
2021/06/14 01:51:22;;;;;;;0.00;0.00;;;21.80;55.80;;;;;;5040698;28;20025;-75
2021/06/14 01:54:07;;;;;;;0.00;0.00;;;21.80;55.90;;;;;;5057240;28;20032;-75
2021/06/14 01:56:33;;;;;;;0.00;0.00;;;21.70;56.30;;;;;;5058681;28;20025;-75
2021/06/14 01:59:01;;;;;;;0.00;0.00;;;21.70;57.50;;;;;;5060013;28;20092;-75
2021/06/14 02:01:29;;;;;;;0.00;0.00;;;21.60;57.40;;;;;;5078870;28;20028;-75
2021/06/14 02:03:56;;;;;;;0.00;0.00;;;21.50;58.00;;;;;;5078387;28;20051;-75
2021/06/14 02:06:25;;;;;;;0.00;0.00;;;21.50;57.50;;;;;;5052478;28;20090;-75
2021/06/14 02:08:51;;;;;;;0.00;0.00;;;21.50;57.70;;;;;;5058732;28;20059;-75
2021/06/14 02:11:18;;;;;;;0.00;0.00;;;21.50;57.00;;;;;;5040272;28;20053;-75
2021/06/14 02:13:45;;;;;;;0.00;0.00;;;21.50;57.30;;;;;;5058150;28;20435;-75
2021/06/14 02:16:12;;;;;;;0.10;0.10;;;21.50;57.10;;;;;;5040211;28;20107;-75
2021/06/14 02:18:38;;;;;;;0.00;0.00;;;21.50;57.20;;;;;;5057291;28;20132;-75
2021/06/14 02:21:04;;;;;;;0.08;0.08;;;21.40;57.20;;;;;;5058205;28;20763;-75
2021/06/14 02:23:30;;;;;;;0.00;0.00;;;21.30;57.60;;;;;;5058162;28;20039;-75
2021/06/14 02:25:56;;;;;;;0.00;0.00;;;21.30;57.30;;;;;;5056739;28;20063;-76
2021/06/14 02:28:24;;;;;;;0.47;0.10;;;21.30;57.60;;;;;;5058625;28;20108;-75
2021/06/14 02:30:50;;;;;;;0.00;0.00;;;21.30;57.80;;;;;;5040121;28;20492;-75
2021/06/14 02:33:16;;;;;;;0.00;0.00;;;21.30;57.80;;;;;;5058323;28;20583;-75
2021/06/14 02:35:41;;;;;;;0.00;0.00;;;21.30;58.10;;;;;;5058227;28;20055;-75
2021/06/14 02:38:08;;;;;;;0.00;0.00;;;21.20;58.00;;;;;;5039915;28;20036;-75
2021/06/14 02:40:34;;;;;;;0.10;0.10;;;21.20;58.20;;;;;;5057864;28;20767;-75
2021/06/14 02:43:09;;;;;;;0.00;0.00;;;21.20;58.20;;;;;;5056380;28;20400;-75
2021/06/14 02:45:39;;;;;;;0.00;0.00;;;21.10;58.50;;;;;;5056478;28;20043;-75
2021/06/14 02:48:06;;;;;;;0.00;0.00;;;21.10;58.40;;;;;;5039898;28;20033;-75
2021/06/14 02:50:34;;;;;;;0.00;0.00;;;21.10;58.30;;;;;;5057630;28;20480;-75
2021/06/14 02:53:04;;;;;;;0.10;0.10;;;21.10;58.20;;;;;;5058242;28;20075;-75
2021/06/14 02:55:33;;;;;;;0.08;0.08;;;21.00;58.00;;;;;;5056217;28;20024;-76
2021/06/14 02:58:00;;;;;;;0.00;0.00;;;21.00;57.90;;;;;;5057213;28;20025;-75
2021/06/14 03:00:29;;;;;;;0.00;0.00;;;21.10;57.80;;;;;;5064711;28;20539;-75
2021/06/14 03:03:04;;;;;;;0.10;0.10;;;21.00;57.60;;;;;;5057455;28;20436;-75
2021/06/14 03:05:31;;;;;;;0.00;0.00;;;21.00;57.80;;;;;;5057228;28;20024;-75
2021/06/14 03:08:00;;;;;;;0.00;0.00;;;20.90;58.20;;;;;;5057115;28;20021;-75
2021/06/14 03:10:29;;;;;;;0.08;0.00;;;20.80;58.30;;;;;;5076893;28;20028;-75
2021/06/14 03:12:58;;;;;;;0.00;0.00;;;20.80;58.40;;;;;;5077281;28;20032;-75
2021/06/14 03:15:26;;;;;;;0.00;0.00;;;20.80;58.50;;;;;;5056352;28;20044;-75
2021/06/14 03:17:53;;;;;;;0.10;0.10;;;20.80;58.50;;;;;;5039093;28;20045;-75
2021/06/14 03:20:24;;;;;;;0.00;0.00;;;20.70;58.70;;;;;;5056920;28;20021;-75
2021/06/14 03:22:49;;;;;;;0.00;0.00;;;20.70;58.70;;;;;;5057793;28;20032;-75
2021/06/14 03:25:20;;;;;;;0.00;0.00;;;20.70;58.90;;;;;;5055638;28;20053;-75
2021/06/14 03:27:45;;;;;;;;;;;20.60;58.70;;;;;;5055756;28;20039;-75
2021/06/14 03:30:12;;;;;;;0.00;0.00;;;20.80;58.40;;;;;;5056759;28;20322;-75
2021/06/14 03:32:44;;;;;;;0.00;0.00;;;20.80;58.80;;;;;;5056898;28;20079;-75
2021/06/14 03:35:13;;;;;;;0.00;0.00;;;20.70;58.70;;;;;;5038705;28;20025;-75
2021/06/14 03:37:39;;;;;;;0.00;0.00;;;20.70;58.80;;;;;;5056803;28;20032;-76
2021/06/14 03:40:05;;;;;;;0.00;0.00;;;20.70;58.70;;;;;;5056681;28;20070;-75
2021/06/14 03:42:31;;;;;;;0.03;0.00;;;20.60;58.80;;;;;;5055636;28;20021;-75
2021/06/14 03:45:00;;;;;;;0.00;0.00;;;20.60;58.80;;;;;;5055212;28;20119;-76
2021/06/14 03:47:26;;;;;;;0.00;0.00;;;20.50;59.00;;;;;;5057349;28;20033;-75
2021/06/14 03:49:51;;;;;;;0.10;0.10;;;20.40;59.20;;;;;;5038307;28;20701;-75
2021/06/14 03:52:17;;;;;;;0.00;0.00;;;20.40;59.00;;;;;;5056493;28;20053;-75
2021/06/14 03:54:43;;;;;;;0.00;0.00;;;20.40;59.10;;;;;;5056850;28;20090;-75
2021/06/14 03:57:09;;;;;;;0.10;0.10;;;20.40;59.10;;;;;;5038370;28;20112;-75
2021/06/14 03:59:34;;;;;;;0.10;0.10;;;20.30;59.40;;;;;;5054476;28;20032;-75
2021/06/14 04:02:00;;;;;;;0.00;0.00;;;20.30;59.40;;;;;;5054948;28;20021;-75
2021/06/14 04:06:54;;;;;;;0.03;0.03;;;20.20;59.60;;;;;;5056289;28;20060;-75
2021/06/14 04:09:20;;;;;;;0.10;0.10;;;20.20;59.70;;;;;;5055691;28;20032;-75
2021/06/14 04:11:45;;;;;;;0.13;0.10;;;20.20;60.10;;;;;;5056516;28;20048;-75
2021/06/14 04:14:11;;;;;;;0.00;0.00;;;20.10;59.70;;;;;;5054700;28;20044;-75
2021/06/14 04:16:36;;;;;;;0.10;0.10;;;20.20;59.80;;;;;;5054714;28;20029;-75
2021/06/14 04:19:02;;;;;;;0.03;0.03;;;20.10;60.00;;;;;;5054608;28;20116;-75
2021/06/14 04:21:28;;;;;;;0.10;0.10;;;20.00;60.10;;;;;;5037671;28;20052;-75
2021/06/14 04:23:54;;;;;;;0.10;0.10;;;20.00;60.20;;;;;;5037991;28;20115;-75
2021/06/14 04:26:20;;;;;;;0.03;0.03;;;20.00;60.10;;;;;;5056404;28;20051;-75
2021/06/14 04:28:45;;;;;;;0.05;0.05;;;20.00;60.00;;;;;;5055884;28;20108;-75
2021/06/14 04:31:11;;;;;;;0.10;0.10;;;20.00;59.70;;;;;;5055770;28;20029;-75
2021/06/14 04:33:37;;;;;;;0.10;0.10;;;20.10;59.70;;;;;;5055744;28;20021;-75
2021/06/14 04:36:03;;;;;;;0.10;0.10;;;20.10;59.50;;;;;;5056213;28;20086;-75
2021/06/14 04:38:29;;;;;;;0.10;0.10;;;20.20;59.30;;;;;;5055780;28;20464;-75
2021/06/14 04:40:55;;;;;;;0.08;0.08;;;20.20;59.20;;;;;;5055485;28;20024;-75
2021/06/14 04:43:20;;;;;;;0.10;0.10;;;20.10;59.50;;;;;;5055530;28;20032;-75
2021/06/14 04:45:46;;;;;;;0.00;0.00;;;20.20;59.40;;;;;;5054040;28;20033;-76
2021/06/14 04:48:12;;;;;;;0.00;0.00;;;20.20;59.40;;;;;;5037532;28;20033;-74
2021/06/14 04:50:37;;;;;;;0.10;0.10;;;20.20;59.70;;;;;;5054045;28;20033;-76
2021/06/14 04:53:03;;;;;;;0.17;0.10;;;20.10;59.70;;;;;;5056004;28;20025;-77
2021/06/14 04:55:29;;;;;;;0.10;0.10;;;20.10;60.30;;;;;;5055556;28;20111;-76
2021/06/14 04:57:55;;;;;;;0.10;0.10;;;20.00;60.60;;;;;;5055552;28;20492;-76
2021/06/14 05:00:21;;;;;;;0.10;0.10;;;20.00;60.10;;;;;;5077940;22;20472;-76
2021/06/14 05:02:47;;;;;;;0.10;0.10;;;20.10;60.10;;;;;;5054111;28;20037;-77
2021/06/14 05:05:13;;;;;;;0.10;0.10;;;20.20;60.40;;;;;;5075265;28;20162;-76
2021/06/14 05:07:38;;;;;;;0.10;0.10;;;20.10;60.50;;;;;;5053572;28;20082;-76
2021/06/14 05:10:05;;;;;;;0.10;0.10;;;20.10;60.50;;;;;;5055259;28;20075;-77
2021/06/14 05:12:31;;;;;;;0.10;0.10;;;20.10;60.60;;;;;;5055484;28;20491;-75
2021/06/14 05:14:56;;;;;;;0.10;0.10;;;20.00;61.00;;;;;;5058623;28;20052;-76
2021/06/14 05:17:22;;;;;;;0.00;0.00;;;20.00;61.20;;;;;;5075184;28;20112;-78
2021/06/14 05:19:48;;;;;;;0.10;0.10;;;20.00;61.10;;;;;;5074563;28;20107;-79
2021/06/14 05:22:14;;;;;;;0.10;0.10;;;20.00;61.20;;;;;;5078869;28;20025;-79
2021/06/14 05:24:41;;;;;;;0.10;0.10;;;20.00;61.20;;;;;;5078617;28;20044;-80
2021/06/14 05:27:07;;;;;;;0.10;0.10;;;20.00;61.00;;;;;;5079154;28;20131;-78
2021/06/14 05:29:33;;;;;;;0.10;0.10;;;20.00;60.90;;;;;;5079188;28;20100;-77
2021/06/14 05:31:59;;;;;;;0.10;0.10;;;20.10;60.40;;;;;;5078562;28;20487;-77
2021/06/14 05:34:25;;;;;;;0.10;0.10;;;20.10;60.80;;;;;;5040744;28;20035;-78
2021/06/14 05:36:51;;;;;;;0.00;0.00;;;20.10;60.90;;;;;;5058807;28;20412;-76
2021/06/14 05:39:17;;;;;;;0.10;0.10;;;20.10;61.30;;;;;;5067883;28;20483;-76
2021/06/14 05:41:43;;;;;;;0.00;0.00;;;20.10;60.60;;;;;;5060914;28;20051;-76
2021/06/14 05:44:10;;;;;;;0.10;0.10;;;20.20;60.40;;;;;;5078824;28;20040;-76
2021/06/14 05:46:36;;;;;;;0.10;0.10;;;20.20;60.70;;;;;;5078359;28;20021;-76
2021/06/14 05:49:03;;;;;;;0.10;0.10;;;20.30;60.20;;;;;;5060507;28;20029;-77
2021/06/14 05:51:29;;;;;;;0.10;0.10;;;20.30;60.30;;;;;;5075060;28;20013;-78
2021/06/14 05:53:55;;;;;;;0.28;0.10;;;20.30;60.20;;;;;;5059138;28;20407;-78
2021/06/14 05:56:21;;;;;;;0.08;0.08;;;20.40;60.10;;;;;;5058739;28;20036;-78
2021/06/14 05:58:46;;;;;;;0.30;0.10;;;20.50;60.30;;;;;;5067895;28;20024;-77
2021/06/14 06:01:12;;;;;;;0.10;0.10;;;20.50;60.30;;;;;;5090366;28;20081;-76
2021/06/14 06:03:37;;;;;;;0.10;0.10;;;20.60;58.40;;;;;;5084931;28;20044;-76
2021/06/14 06:06:03;;;;;;;0.00;0.00;;;20.70;58.30;;;;;;5078174;28;20086;-71
2021/06/14 06:08:29;;;;;;;0.10;0.10;;;20.70;58.30;;;;;;5071524;28;20064;-69
2021/06/14 06:10:54;;;;;;;0.10;0.10;;;20.80;58.70;;;;;;5031853;28;20024;-70
2021/06/14 06:13:20;;;;;;;0.05;0.05;;;20.80;57.80;;;;;;5096199;28;20031;-70
2021/06/14 06:15:46;;;;;;;0.10;0.10;;;21.00;56.30;;;;;;5098473;28;20499;-69
2021/06/14 06:18:11;;;;;;;0.10;0.10;;;21.10;56.40;;;;;;5096361;28;20502;-69
2021/06/14 06:20:37;;;;;;;0.10;0.10;;;21.20;55.90;;;;;;5077868;28;20078;-70
2021/06/14 06:23:04;;;;;;;0.00;0.00;;;21.30;55.10;;;;;;5077219;28;20021;-69
2021/06/14 06:25:30;;;;;;;0.08;0.08;;;21.30;55.00;;;;;;5077737;28;20027;-69
2021/06/14 06:27:56;;;;;;;0.00;0.00;;;21.30;55.10;;;;;;5077919;28;20099;-70
2021/06/14 06:30:25;;;;;;;0.10;0.10;;;21.50;54.00;;;;;;5077400;28;20035;-69
2021/06/14 06:32:52;;;;;;;0.10;0.10;;;21.50;55.30;;;;;;5076775;28;20124;-70
2021/06/14 06:35:18;;;;;;;0.00;0.00;;;21.60;54.10;;;;;;5058646;28;20078;-69
2021/06/14 06:37:44;;;;;;;0.00;0.00;;;21.70;53.50;;;;;;5055374;28;20032;-69
2021/06/14 06:40:10;;;;;;;0.00;0.00;;;21.80;53.60;;;;;;5039729;28;20044;-70
2021/06/14 06:42:36;;;;;;;0.10;0.10;;;21.80;54.50;;;;;;5069916;28;20467;-69
2021/06/14 06:45:04;;;;;;;0.00;0.00;;;21.80;53.80;;;;;;5057801;28;20048;-69
2021/06/14 06:47:30;;;;;;;0.10;0.10;;;21.90;52.60;;;;;;5057280;28;20029;-69
2021/06/14 06:49:55;;;;;;;0.00;0.00;;;22.00;52.40;;;;;;5056967;28;20086;-69
2021/06/14 06:52:21;;;;;;;0.10;0.10;;;22.00;52.70;;;;;;5055650;28;20025;-69
2021/06/14 06:54:47;;;;;;;0.00;0.00;;;22.10;53.00;;;;;;5076933;28;20391;-69
2021/06/14 06:57:13;;;;;;;0.10;0.10;;;22.10;52.90;;;;;;5077030;28;20035;-69
2021/06/14 06:59:39;;;;;;;0.05;0.05;;;22.10;54.20;;;;;;5071900;28;20056;-69
2021/06/14 07:02:05;;;;;;;0.10;0.10;;;22.20;53.60;;;;;;5056572;28;20063;-69
2021/06/14 07:04:30;;;;;;;0.00;0.00;;;22.40;52.40;;;;;;5056216;28;20790;-70
2021/06/14 07:06:56;;;;;;;0.00;0.00;;;22.50;51.90;;;;;;5056758;28;20021;-69
2021/06/14 07:09:22;;;;;;;0.05;0.00;;;22.50;52.50;;;;;;5074402;28;20036;-70
2021/06/14 07:11:47;;;;;;;0.00;0.00;;;22.70;52.30;;;;;;5076546;28;20483;-70
2021/06/14 07:14:13;;;;;;;0.03;0.03;;;22.70;52.10;;;;;;5076512;28;20016;-69
2021/06/14 07:16:40;;;;;;;0.00;0.00;;;22.80;52.10;;;;;;5074527;28;20047;-70
2021/06/14 07:19:06;;;;;;;0.00;0.00;;;23.00;51.40;;;;;;5056866;28;20024;-70
2021/06/14 07:21:32;;;;;;;0.00;0.00;;;23.10;51.90;;;;;;5062330;28;20107;-70
2021/06/14 07:23:58;;;;;;;0.10;0.10;;;23.30;51.20;;;;;;5058458;28;20024;-69
2021/06/14 07:26:24;;;;;;;0.10;0.10;;;23.70;51.40;;;;;;5068273;28;20104;-70
2021/06/14 07:28:50;;;;;;;0.10;0.10;;;25.10;47.70;;;;;;5056362;28;20028;-70
2021/06/14 07:31:17;;;;;;;0.00;0.00;;;27.80;43.00;;;;;;5056733;28;20029;-71
2021/06/14 07:33:43;;;;;;;0.00;0.00;;;29.40;38.80;;;;;;5056286;28;20055;-76
2021/06/14 07:36:11;;;;;;;0.00;0.00;;;31.80;35.40;;;;;;5053085;28;20039;-76
2021/06/14 07:38:38;;;;;;;0.00;0.00;;;34.20;32.30;;;;;;5067743;28;20021;-72
2021/06/14 07:41:05;;;;;;;0.03;0.00;;;35.70;30.00;;;;;;5082367;28;20032;-70
2021/06/14 07:43:31;;;;;;;0.00;0.00;;;35.40;30.20;;;;;;5055220;28;20017;-71
2021/06/14 07:45:57;;;;;;;0.00;0.00;;;35.20;29.00;;;;;;5037277;28;20182;-71
2021/06/14 07:48:23;;;;;;;0.00;0.00;;;34.90;29.50;;;;;;5056119;28;20060;-71
2021/06/14 07:50:51;;;;;;;0.00;0.00;;;35.50;28.20;;;;;;5056567;28;20040;-70
2021/06/14 07:53:17;;;;;;;0.00;0.00;;;35.80;29.30;;;;;;5055859;28;20157;-71
2021/06/14 07:55:43;;;;;;;0.00;0.00;;;35.10;27.50;;;;;;5056271;28;20463;-71
2021/06/14 07:58:09;;;;;;;0.00;0.00;;;35.60;27.20;;;;;;5055681;28;20029;-70
2021/06/14 08:00:37;;;;;;;0.00;0.00;;;35.60;27.40;;;;;;5079299;28;20027;-70
2021/06/14 08:03:03;;;;;;;0.00;0.00;;;35.80;27.90;;;;;;5076108;28;20029;-75
2021/06/14 08:05:29;;;;;;;0.00;0.00;;;37.60;25.50;;;;;;5057878;28;20036;-74
2021/06/14 08:07:55;;;;;;;0.10;0.10;;;39.00;24.20;;;;;;5075356;28;20547;-75
2021/06/14 08:10:22;;;;;;;0.00;0.00;;;40.10;23.10;;;;;;5058092;28;20029;-75
2021/06/14 08:12:50;;;;;;;0.10;0.10;;;40.80;23.00;;;;;;5075737;28;20021;-74
2021/06/14 08:15:25;;;;;;;0.10;0.10;;;41.80;21.90;;;;;;5075229;28;20402;-74
2021/06/14 08:17:54;;;;;;;0.10;0.10;;;42.30;21.30;;;;;;5075738;28;20033;-75
2021/06/14 08:20:28;;;;;;;0.10;0.10;;;42.60;20.30;;;;;;5075501;28;20066;-74
2021/06/14 08:25:38;;;;;;;0.10;0.10;;;42.80;20.80;;;;;;5075470;28;20517;-75
2021/06/14 08:28:05;;;;;;;0.20;0.10;;;43.10;20.30;;;;;;5075446;28;20029;-75
2021/06/14 08:30:31;;;;;;;0.10;0.10;;;43.40;20.20;;;;;;5057544;28;20522;-75
2021/06/14 08:32:58;;;;;;;0.10;0.10;;;43.40;20.00;;;;;;5069516;28;20440;-75
2021/06/14 08:35:26;;;;;;;0.10;0.10;;;43.10;20.10;;;;;;5055149;28;20045;-75
2021/06/14 08:37:53;;;;;;;0.10;0.10;;;43.10;19.80;;;;;;5055539;28;20029;-75
2021/06/14 08:40:23;;;;;;;;;;;43.20;20.70;;;;;;5055916;28;20500;-75
2021/06/14 08:42:49;;;;;;;0.10;0.10;;;43.30;19.90;;;;;;5055786;28;19962;-76
2021/06/14 08:45:17;;;;;;;0.10;0.10;;;43.20;20.00;;;;;;5055349;28;20021;-75
2021/06/14 08:47:45;;;;;;;0.10;0.10;;;43.40;19.80;;;;;;5055331;28;20024;-75
2021/06/14 08:50:13;;;;;;;0.10;0.10;;;43.40;20.00;;;;;;5055186;28;20087;-75
2021/06/14 08:52:40;;;;;;;0.10;0.10;;;43.30;18.70;;;;;;5055254;28;20045;-75
2021/06/14 08:55:09;;;;;;;0.15;0.10;;;43.30;19.70;;;;;;5054569;28;20566;-75
2021/06/14 08:57:35;;;;;;;0.10;0.10;;;43.50;19.50;;;;;;5054549;28;20395;-75
2021/06/14 09:00:01;;;;;;;0.20;0.10;;;43.60;19.30;;;;;;5064406;28;20025;-75
2021/06/14 09:02:26;;;;;;;0.20;0.10;;;43.80;19.80;;;;;;5065278;28;20103;-76
2021/06/14 09:04:52;;;;;;;0.10;0.10;;;43.90;19.60;;;;;;5046044;28;20500;-76
2021/06/14 09:07:18;;;;;;;0.10;0.10;;;43.90;19.40;;;;;;5066547;28;20041;-75
2021/06/14 09:09:45;;;;;;;0.10;0.10;;;44.00;20.10;;;;;;5064324;28;20791;-75
2021/06/14 09:12:11;;;;;;;0.10;0.10;;;43.80;20.40;;;;;;5064158;28;20033;-76
2021/06/14 09:14:39;;;;;;;0.10;0.10;;;43.60;20.40;;;;;;5065636;28;20031;-76
2021/06/14 09:17:11;;;;;;;0.10;0.10;;;43.50;20.40;;;;;;5059303;28;20012;-76
2021/06/14 09:19:51;;;;;;;0.10;0.10;;;43.70;20.80;;;;;;5069203;28;20028;-74
2021/06/14 09:22:22;;;;;;;0.10;0.10;;;43.60;19.90;;;;;;5074571;28;20434;-76
2021/06/14 09:25:16;;;;;;;0.10;0.10;;;43.60;20.90;;;;;;5074720;28;20454;-77
2021/06/14 09:27:48;;;;;;;0.10;0.10;;;43.80;20.40;;;;;;5067992;28;20037;-75
2021/06/14 09:30:26;;;;;;;0.10;0.10;;;43.50;20.50;;;;;;5037417;28;20025;-76
2021/06/14 09:33:25;;;;;;;0.10;0.10;;;43.40;20.30;;;;;;5055091;28;20028;-76
2021/06/14 09:35:53;;;;;;;0.10;0.10;;;43.60;20.70;;;;;;5054482;28;20110;-77
2021/06/14 09:38:20;;;;;;;0.10;0.10;;;43.30;20.90;;;;;;5037354;28;20116;-77
2021/06/14 09:40:48;;;;;;;0.10;0.10;;;43.60;20.30;;;;;;5054641;28;20017;-76
2021/06/14 09:43:42;;;;;;;0.10;0.10;;;43.80;20.90;;;;;;5063016;28;20082;-76
2021/06/14 09:46:21;;;;;;;0.10;0.10;;;44.00;20.00;;;;;;5054495;28;20037;-76
2021/06/14 09:48:48;;;;;;;0.10;0.10;;;44.00;20.40;;;;;;5073881;28;20024;-75
2021/06/14 09:51:13;;;;;;;0.10;0.10;;;44.10;20.40;;;;;;5075032;28;20047;-76
2021/06/14 09:53:48;;;;;;;0.13;0.10;;;44.30;21.10;;;;;;5066766;28;20701;-76
2021/06/14 09:56:21;;;;;;;0.10;0.10;;;44.40;21.10;;;;;;5063865;28;20567;-75
2021/06/14 09:58:53;;;;;;;0.20;0.10;;;44.40;20.60;;;;;;5068350;28;20024;-76
2021/06/14 10:01:40;;;;;;;0.30;0.10;;;44.40;20.30;;;;;;5064536;28;20765;-75
2021/06/14 10:04:11;;;;;;;0.20;0.20;;;44.00;21.10;;;;;;5055265;28;20025;-76
2021/06/14 10:06:41;;;;;;;0.10;0.10;;;44.00;20.30;;;;;;5046464;28;20040;-76
2021/06/14 10:09:14;;;;;;;0.10;0.10;;;43.60;20.40;;;;;;5065861;28;20487;-76
2021/06/14 10:11:43;;;;;;;0.25;0.10;;;43.80;20.90;;;;;;5049918;28;20040;-76
2021/06/14 10:14:13;;;;;;;0.10;0.10;;;43.80;21.00;;;;;;5069033;28;20051;-76
2021/06/14 10:16:41;;;;;;;0.10;0.10;;;43.90;21.10;;;;;;5065453;28;20649;-76
2021/06/14 10:19:08;;;;;;;;;;;43.50;21.10;;;;;;5066521;28;20467;-76
2021/06/14 10:21:42;;;;;;;0.10;0.10;;;43.30;22.00;;;;;;5067268;28;20950;-75
2021/06/14 10:24:17;;;;;;;0.10;0.10;;;43.10;21.70;;;;;;5066291;28;20021;-75
2021/06/14 10:26:48;;;;;;;0.10;0.10;;;42.90;21.70;;;;;;5066077;28;20028;-76
2021/06/14 10:29:16;;;;;;;0.10;0.10;;;42.80;21.40;;;;;;5066852;28;20019;-75
2021/06/14 10:31:42;;;;;;;;;;;42.70;21.40;;;;;;5073856;28;20029;-75
2021/06/14 10:34:10;;;;;;;0.00;0.00;;;42.00;22.20;;;;;;5076845;28;20334;-76
2021/06/14 10:36:37;;;;;;;0.00;0.00;;;41.80;22.80;;;;;;5076824;28;20025;-75
2021/06/14 10:39:03;;;;;;;0.00;0.00;;;41.30;22.80;;;;;;5068149;28;20029;-74
2021/06/14 10:41:29;;;;;;;0.00;0.00;;;40.80;23.40;;;;;;5052622;28;20056;-74
2021/06/14 10:43:56;;;;;;;0.00;0.00;;;39.80;23.50;;;;;;5065369;28;20027;-75
2021/06/14 10:46:24;;;;;;;0.00;0.00;;;39.20;24.80;;;;;;5068276;28;20514;-74
2021/06/14 10:49:01;;;;;;;0.00;0.00;;;38.80;26.10;;;;;;5071143;28;20016;-75
2021/06/14 10:51:28;;;;;;;0.00;0.00;;;38.40;26.30;;;;;;5065441;28;20040;-74
2021/06/14 10:54:11;;;;;;;0.00;0.00;;;37.90;27.80;;;;;;5048036;28;20028;-74
2021/06/14 10:56:41;;;;;;;0.00;0.00;;;37.30;27.80;;;;;;5066701;28;20086;-74
2021/06/14 10:59:10;;;;;;;0.00;0.00;;;37.00;28.20;;;;;;5071721;28;20428;-74
2021/06/14 11:01:41;;;;;;;;;;;36.40;27.60;;;;;;5065022;28;20415;-75
2021/06/14 11:04:08;;;;;;;0.00;0.00;;;36.30;28.80;;;;;;5060011;28;19912;-75
2021/06/14 11:06:36;;;;;;;0.00;0.00;;;36.30;28.60;;;;;;5067747;28;20522;-78
2021/06/14 11:09:13;;;;;;;0.00;0.00;;;36.20;28.80;;;;;;5065339;28;20518;-75
2021/06/14 11:11:59;;;;;;;0.00;0.00;;;36.10;28.30;;;;;;5067022;28;20039;-76
2021/06/14 11:14:40;;;;;;;0.00;0.00;;;36.10;29.00;;;;;;5065394;28;20080;-74
2021/06/14 11:17:19;;;;;;;0.10;0.00;;;36.00;28.20;;;;;;5064686;28;20024;-74
2021/06/14 11:19:58;;;;;;;0.00;0.00;;;36.00;29.90;;;;;;5066297;28;20017;-74
2021/06/14 11:22:34;;;;;;;;;;;35.80;31.00;;;;;;5069073;28;20024;-74
2021/06/14 11:24:59;;;;;;;0.00;0.00;;;35.80;31.00;;;;;;5048872;28;19943;-74
2021/06/14 11:27:39;;;;;;;0.00;0.00;;;35.50;30.00;;;;;;5067339;28;20502;-74
2021/06/14 11:30:18;;;;;;;0.00;0.00;;;35.60;30.20;;;;;;5065471;28;20028;-74
2021/06/14 11:32:43;;;;;;;0.00;0.00;;;35.30;30.60;;;;;;5065009;28;20036;-75
2021/06/14 11:35:12;;;;;;;0.00;0.00;;;35.30;30.80;;;;;;5065439;28;20578;-74
2021/06/14 11:37:43;;;;;;;0.00;0.00;;;35.30;31.20;;;;;;5066628;28;20048;-75
2021/06/14 11:40:11;;;;;;;0.00;0.00;;;35.30;32.30;;;;;;5047834;28;20028;-75
2021/06/14 11:42:51;;;;;;;0.00;0.00;;;35.30;30.80;;;;;;5045301;28;20025;-75
2021/06/14 11:45:30;;;;;;;0.00;0.00;;;35.30;31.50;;;;;;5064135;28;20557;-74
2021/06/14 11:47:58;;;;;;;0.00;0.00;;;35.10;29.90;;;;;;5064028;28;20034;-74
2021/06/14 11:50:27;;;;;;;0.00;0.00;;;35.00;31.10;;;;;;5065632;28;20033;-75
2021/06/14 11:53:05;;;;;;;0.32;0.00;;;35.00;30.40;;;;;;5067785;28;20025;-74
2021/06/14 11:55:38;;;;;;;0.00;0.00;;;35.00;32.40;;;;;;5065471;28;20037;-74
2021/06/14 11:58:06;;;;;;;0.00;0.00;;;34.90;31.10;;;;;;5064402;28;20593;-75
2021/06/14 12:00:40;;;;;;;0.00;0.00;;;34.90;31.10;;;;;;5070232;28;20016;-75
2021/06/14 12:03:17;;;;;;;0.00;0.00;;;34.80;32.30;;;;;;5064601;28;20017;-74
2021/06/14 12:05:42;;;;;;;0.00;0.00;;;34.90;31.10;;;;;;5063907;28;20021;-75
2021/06/14 12:08:09;;;;;;;0.00;0.00;;;34.80;31.90;;;;;;5064834;28;20024;-75
2021/06/14 12:10:36;;;;;;;0.28;0.00;;;34.80;31.20;;;;;;5063224;28;20111;-74
2021/06/14 12:13:05;;;;;;;0.00;0.00;;;34.60;31.80;;;;;;5065520;28;20080;-75
2021/06/14 12:15:33;;;;;;;0.00;0.00;;;34.60;31.80;;;;;;5064426;28;20032;-75
2021/06/14 12:17:59;;;;;;;0.00;0.00;;;34.50;31.90;;;;;;5048292;28;20027;-75
2021/06/14 12:20:31;;;;;;;0.00;0.00;;;34.30;31.30;;;;;;5064829;28;20898;-74
2021/06/14 12:23:14;;;;;;;0.00;0.00;;;34.40;31.30;;;;;;5046263;28;20032;-74
2021/06/14 12:25:48;;;;;;;0.00;0.00;;;34.50;32.00;;;;;;5065009;28;20028;-74
2021/06/14 12:28:16;;;;;;;0.10;0.00;;;34.40;30.00;;;;;;5063992;28;20103;-75
2021/06/14 12:30:44;;;;;;;0.00;0.00;;;34.40;29.10;;;;;;5061334;28;20399;-75
2021/06/14 12:33:11;;;;;;;0.03;0.00;;;34.30;31.60;;;;;;5047604;28;20056;-74
2021/06/14 12:35:38;;;;;;;0.00;0.00;;;34.30;30.40;;;;;;5066123;28;20028;-74
2021/06/14 12:38:09;;;;;;;0.00;0.00;;;34.10;30.20;;;;;;5073552;28;20025;-74
2021/06/14 12:40:39;;;;;;;0.00;0.00;;;34.00;30.70;;;;;;5064927;28;20021;-74
2021/06/14 12:43:06;;;;;;;0.00;0.00;;;34.00;32.20;;;;;;5047604;28;20025;-74
2021/06/14 12:45:34;;;;;;;0.00;0.00;;;34.10;33.20;;;;;;5063821;28;20024;-74
2021/06/14 12:48:03;;;;;;;0.00;0.00;;;34.00;32.70;;;;;;5049046;28;20028;-74
2021/06/14 12:50:32;;;;;;;0.00;0.00;;;34.00;33.00;;;;;;5063729;28;20051;-74
2021/06/14 12:52:59;;;;;;;0.10;0.00;;;33.90;32.30;;;;;;5064295;28;20517;-74
2021/06/14 12:55:30;;;;;;;0.00;0.00;;;34.10;32.50;;;;;;5063541;28;20040;-74
2021/06/14 12:57:57;;;;;;;0.00;0.00;;;34.20;31.80;;;;;;5064739;28;20066;-74
2021/06/14 13:00:30;;;;;;;0.10;0.00;;;34.20;31.20;;;;;;5068666;28;20571;-74